createdAt,value
2022-12-12T00:03:31.223Z,10.70
2022-12-12T00:13:42.940Z,10.95
2022-12-12T00:23:48.128Z,11.57
2022-12-12T00:33:52.235Z,11.13
2022-12-12T00:43:54.253Z,11.85
2022-12-12T00:53:57.377Z,11.68
2022-12-12T01:03:59.931Z,12.30
2022-12-12T01:14:01.715Z,13.20
2022-12-12T01:24:03.659Z,12.23
2022-12-12T01:34:05.287Z,13.38
2022-12-12T01:44:38.563Z,15.23
2022-12-12T01:54:54.320Z,14.80
2022-12-12T02:05:28.049Z,15.55
2022-12-12T02:15:44.087Z,16.48
2022-12-12T02:26:36.378Z,14.40
2022-12-12T02:37:07.343Z,16.83
2022-12-12T02:47:28.747Z,13.80
2022-12-12T02:57:30.402Z,15.32
2022-12-12T03:08:03.084Z,15.32
2022-12-12T03:18:13.866Z,14.13
2022-12-12T03:28:30.403Z,15.18
2022-12-12T03:38:36.535Z,10.63
2022-12-12T03:48:43.881Z,12.70
2022-12-12T03:59:05.495Z,13.52
2022-12-12T04:09:39.006Z,12.07
2022-12-12T04:20:28.034Z,10.45
2022-12-12T04:30:35.174Z,11.73
2022-12-12T04:40:45.245Z,10.88
2022-12-12T04:50:51.064Z,10.32
2022-12-12T05:01:04.927Z,11.05
2022-12-12T05:11:07.624Z,10.68
2022-12-12T05:21:10.563Z,10.68
2022-12-12T05:31:12.339Z,10.30
2022-12-12T05:41:16.412Z,11.30
2022-12-12T05:51:22.979Z,11.20
2022-12-12T06:01:27.850Z,10.95
2022-12-12T06:11:30.230Z,11.13
2022-12-12T06:21:32.841Z,10.60
2022-12-12T06:31:34.589Z,11.52
2022-12-12T06:41:36.671Z,11.80
2022-12-12T06:51:47.256Z,11.82
2022-12-12T07:01:50.935Z,9.93
2022-12-12T07:11:52.677Z,12.45
2022-12-12T07:21:55.471Z,12.15
2022-12-12T07:31:57.158Z,9.40
2022-12-12T07:41:58.970Z,9.85
2022-12-12T07:52:00.638Z,10.23
2022-12-12T08:02:03.753Z,11.43
2022-12-12T08:12:07.083Z,10.57
2022-12-12T08:22:08.990Z,9.97
2022-12-12T08:32:10.816Z,9.25
2022-12-12T08:42:13.432Z,6.57
2022-12-12T08:52:16.089Z,7.97
2022-12-12T09:02:17.941Z,7.03
2022-12-12T09:12:26.094Z,6.75
2022-12-12T09:22:31.776Z,5.80
2022-12-12T09:32:33.527Z,6.47
2022-12-12T09:42:46.139Z,7.63
2022-12-12T09:52:48.392Z,6.85
2022-12-12T10:03:15.343Z,7.43
2022-12-12T10:13:37.310Z,6.72
2022-12-12T10:23:55.857Z,7.60
2022-12-12T10:34:35.559Z,7.20
2022-12-12T10:45:04.084Z,7.80
2022-12-12T10:55:20.143Z,6.90
2022-12-12T11:05:27.123Z,7.57
2022-12-12T11:16:02.515Z,7.25
2022-12-12T11:26:19.012Z,7.65
2022-12-12T11:36:37.550Z,8.13
2022-12-12T11:46:46.261Z,6.50
2022-12-12T11:56:57.778Z,6.97
2022-12-12T12:07:15.892Z,5.68
2022-12-12T12:17:37.669Z,5.43
2022-12-12T12:27:51.599Z,6.82
2022-12-12T12:38:39.214Z,6.30
2022-12-12T12:48:49.294Z,7.47
2022-12-12T12:58:54.947Z,7.20
2022-12-12T13:09:16.435Z,7.78
2022-12-12T13:19:25.939Z,8.00
2022-12-12T13:29:47.393Z,7.05
2022-12-12T13:40:07.528Z,6.85
2022-12-12T13:50:09.427Z,6.63
2022-12-12T14:00:19.671Z,6.35
2022-12-12T14:10:33.159Z,6.35
2022-12-12T14:20:44.600Z,6.97
2022-12-12T14:31:04.749Z,6.53
2022-12-12T14:41:13.569Z,6.35
2022-12-12T14:51:29.462Z,6.93
2022-12-12T15:01:39.022Z,8.23
2022-12-12T15:11:40.870Z,7.55
2022-12-12T15:21:44.984Z,7.53
2022-12-12T15:41:51.272Z,8.10
2022-12-12T15:51:53.942Z,7.95
2022-12-12T16:01:56.503Z,8.95
2022-12-12T16:11:59.524Z,9.00
2022-12-12T16:22:08.101Z,7.15
2022-12-12T16:32:18.304Z,7.60
2022-12-12T16:42:24.120Z,7.15
2022-12-12T16:52:25.834Z,6.88
2022-12-12T17:02:30.107Z,6.07
2022-12-12T17:12:31.909Z,6.93
2022-12-12T17:22:33.987Z,6.57
2022-12-12T17:32:36.636Z,7.38
2022-12-12T17:42:39.028Z,7.50
2022-12-12T17:52:41.467Z,8.57
2022-12-12T18:02:45.349Z,7.88
2022-12-12T18:12:51.762Z,8.65
2022-12-12T18:22:56.332Z,9.20
2022-12-12T18:33:02.941Z,8.90
2022-12-12T18:43:05.791Z,10.63
2022-12-12T18:53:08.899Z,10.13
2022-12-12T19:03:17.934Z,9.32
2022-12-12T19:13:24.913Z,9.63
2022-12-12T19:23:27.115Z,9.55
2022-12-12T19:33:30.033Z,9.27
2022-12-12T19:43:36.457Z,8.40
2022-12-12T19:53:46.951Z,9.05
2022-12-12T20:03:57.031Z,9.43
2022-12-12T20:14:00.664Z,9.75
2022-12-12T20:24:12.660Z,8.63
2022-12-12T20:34:21.923Z,10.13
2022-12-12T20:44:26.363Z,8.88
2022-12-12T20:54:31.416Z,8.55
2022-12-12T21:04:33.628Z,8.20
2022-12-12T21:14:40.362Z,8.38
2022-12-12T21:24:42.211Z,9.02
2022-12-12T21:34:43.876Z,8.68
2022-12-12T21:44:47.703Z,9.52
2022-12-12T21:54:56.547Z,8.20
2022-12-12T22:04:59.168Z,9.07
2022-12-12T22:15:01.505Z,8.98
2022-12-12T22:25:03.549Z,10.02
2022-12-12T22:35:06.260Z,11.48
2022-12-12T22:45:14.007Z,10.75
2022-12-12T22:55:17.402Z,11.57
2022-12-12T23:05:19.444Z,11.07
2022-12-12T23:15:21.502Z,13.68
2022-12-12T23:25:24.162Z,14.30
2022-12-12T23:35:31.802Z,15.30
2022-12-12T23:45:38.699Z,12.95
2022-12-12T23:55:40.530Z,15.50
